LTN weather

London Luton Airport
London, England, United Kingdom

Public forecast

Using degrees Celsius for public forecast. Weather courtesy of forecast.io.

Current aviation weather report (METAR) for London Luton Airport

Retrieved 2019/10/16 23:20 UTC (28 minutes ago):

EGGW 162320Z AUTO 26006KT 9999 NCD 08/07 Q1006

Aviation forecast (TAF) for London Luton Airport

Retrieved 2019/10/16 18:00 UTC (6 hours ago):

TAF EGGW 161700Z 1618/1718 25010KT 9999 FEW025 BECMG 1621/1624 19005KT PROB30 1622/1708 5000 BR TEMPO 1711/1718 6000 SHRA BKN013 PROB30 TEMPO 1711/1715 19015G25KT 3000 +SHRA BKN009